Altoona Blair County Airport
KAOO : now visible

Airfield :











YOU CAN JOIN US ON...

 
LOGIN :

Register | Disclaimer

   EN    FR    IT 

 









Legend :    VFR   Marginal VFR   IFR   Intensive IFR   Very Intensive IFR
Visi :
Ceiling :
>= 8 km
>= 3000ft
5 to 8 km
1000 to 3000 ft
1500m to 5 km
500 to 1000 ft
800 to 1500m
200 to 500 ft
< 800m
< 200 ft
Symbols :   Thunderstorms  Fog  Heavy snow  Heavy precipitations  Wind > 20 kt






- Airport Elevation : 1503 ft
- IATA code : AOO


KAOO - Altoona Blair County

CURRENT METAR :
  • 261653Z AUTO 16009KT 10SM SCT014 BKN022 OVC055 11/07 A2982 RMK AO2 SLP102 T01110072

EXPIRED METARs :
  • 261638Z AUTO 16008KT 10SM FEW009 BKN014 OVC055 11/07 A2983 RMK AO2 T01060072
  • 261553Z AUTO 17008KT 10SM OVC007 09/07 A2985 RMK AO2 CIG 006V011 SLP113 T00940072
  • 261526Z AUTO 16009KT 7SM OVC005 09/07 A2985 RMK AO2 T00890067
  • 261453Z AUTO 18009KT 6SM BR OVC004 08/07 A2986 RMK AO2 CIG 003V007 SLP116 60000 T00830067 50006
  • 261426Z AUTO 16006KT 4SM BR OVC003 08/07 A2985 RMK AO2 T00780067

TAF KAOO
Valid from the 26 at 15:00 until the 27 at 12:00 UTC


261514Z 2615/2712 18008KT 5SM BR VCSH OVC004
FM262000 13007KT 5SM -SHRA BR BKN030 OVC040
FM270100 18008KT 2SM -RA BR BKN009 OVC015
FM270400 27012G22KT 1SM -SNRA OVC007
FM270900 27022G33KT 6SM -SHSN OVC030



MET'MAP, your aeronautical weather chart ! - Copyright ORBIFLY December 2007 - Disclaimer

ORBIFLY MET'MAP TEAM :

Programming & Development : Alexandra Zaïnal
Concept & original design : Baudouin d'Aumeries
Assistance for programming : Marc-Olivier Méhu
Technical & hardware support : Manuel Goepfert

Contact : metmap@orbifly.com




SOURCES & CREDITS :

   NOAA       Earth
Advisory